createdAt,value
2024-05-09T00:00:46.421Z,14.57
2024-05-09T00:03:34.034Z,14.52
2024-05-09T00:06:01.615Z,14.49
2024-05-09T00:08:29.352Z,14.48
2024-05-09T00:10:56.662Z,14.45
2024-05-09T00:13:24.200Z,14.41
2024-05-09T00:15:51.378Z,14.40
2024-05-09T00:18:19.094Z,14.39
2024-05-09T00:20:46.345Z,14.37
2024-05-09T00:23:14.229Z,14.34
2024-05-09T00:25:45.453Z,14.28
2024-05-09T00:28:14.221Z,14.28
2024-05-09T00:30:41.788Z,14.25
2024-05-09T00:33:10.860Z,14.23
2024-05-09T00:35:39.816Z,14.19
2024-05-09T00:38:07.628Z,14.16
2024-05-09T00:40:41.021Z,14.13
2024-05-09T00:43:12.397Z,14.08
2024-05-09T00:45:40.649Z,14.04
2024-05-09T00:48:11.084Z,14.03
2024-05-09T00:50:42.508Z,13.97
2024-05-09T00:53:16.654Z,13.96
2024-05-09T00:55:45.066Z,13.96
2024-05-09T00:58:18.373Z,13.95
2024-05-09T01:00:45.625Z,13.93
2024-05-09T01:03:14.352Z,13.88
2024-05-09T01:05:45.196Z,13.88
2024-05-09T01:08:13.420Z,13.85
2024-05-09T01:10:43.720Z,13.83
2024-05-09T01:13:12.874Z,13.81
2024-05-09T01:15:40.376Z,13.79
2024-05-09T01:18:12.096Z,13.75
2024-05-09T01:20:43.417Z,13.71
2024-05-09T01:23:15.370Z,13.67
2024-05-09T01:25:44.819Z,13.64
2024-05-09T01:28:12.823Z,13.62
2024-05-09T01:30:39.969Z,13.59
2024-05-09T01:33:09.765Z,13.56
2024-05-09T01:35:41.320Z,13.54
2024-05-09T01:38:12.802Z,13.51
2024-05-09T01:40:40.605Z,13.49
2024-05-09T01:43:09.635Z,13.48
2024-05-09T01:45:38.641Z,13.49
2024-05-09T01:48:07.165Z,13.48
2024-05-09T01:50:39.594Z,13.48
2024-05-09T01:53:15.151Z,13.46
2024-05-09T01:55:43.373Z,13.48
2024-05-09T01:58:11.294Z,13.46
2024-05-09T02:00:42.374Z,13.47
2024-05-09T02:03:16.086Z,13.44
2024-05-09T02:05:47.059Z,13.45
2024-05-09T02:08:22.373Z,13.45
2024-05-09T02:10:50.762Z,13.43
2024-05-09T02:13:18.770Z,13.41
2024-05-09T02:15:46.109Z,13.40
2024-05-09T02:18:14.256Z,13.39
2024-05-09T02:20:42.793Z,13.38
2024-05-09T02:23:11.393Z,13.36
2024-05-09T02:25:38.661Z,13.31
2024-05-09T02:28:06.820Z,13.26
2024-05-09T02:30:39.922Z,13.22
2024-05-09T02:33:12.301Z,13.17
2024-05-09T02:35:43.007Z,13.14
2024-05-09T02:38:12.316Z,13.09
2024-05-09T02:40:40.424Z,13.07
2024-05-09T02:43:10.831Z,13.04
2024-05-09T02:45:42.067Z,12.98
2024-05-09T02:48:13.721Z,12.96
2024-05-09T02:50:41.884Z,12.97
2024-05-09T02:53:13.155Z,12.91
2024-05-09T02:55:42.026Z,12.93
2024-05-09T02:58:10.823Z,12.95
2024-05-09T03:00:41.593Z,12.93
2024-05-09T03:03:15.136Z,12.91
2024-05-09T03:05:44.763Z,12.86
2024-05-09T03:08:13.188Z,12.83
2024-05-09T03:10:40.463Z,12.80
2024-05-09T03:13:08.781Z,12.77
2024-05-09T03:15:36.876Z,12.73
2024-05-09T03:18:06.969Z,12.71
2024-05-09T03:20:36.101Z,12.67
2024-05-09T03:23:06.331Z,12.64
2024-05-09T03:25:34.051Z,12.62
2024-05-09T03:28:01.739Z,12.61
2024-05-09T03:30:39.033Z,12.60
2024-05-09T03:33:22.761Z,12.60
2024-05-09T03:35:50.122Z,12.55
2024-05-09T03:38:17.919Z,12.54
2024-05-09T03:40:48.050Z,12.51
2024-05-09T03:43:16.373Z,12.48
2024-05-09T03:45:44.676Z,12.46
2024-05-09T03:48:12.716Z,12.43
2024-05-09T03:50:40.197Z,12.40
2024-05-09T03:53:11.518Z,12.40
2024-05-09T03:55:39.153Z,12.38
2024-05-09T03:58:12.936Z,12.34
2024-05-09T04:00:40.556Z,12.34
2024-05-09T04:03:11.141Z,12.34
2024-05-09T04:05:42.458Z,12.37
2024-05-09T04:08:11.380Z,12.37
2024-05-09T04:10:39.293Z,12.38
2024-05-09T04:13:06.927Z,12.39
2024-05-09T04:15:34.090Z,12.39
2024-05-09T04:18:02.476Z,12.37
2024-05-09T04:20:37.801Z,12.39
2024-05-09T04:23:12.249Z,12.40
2024-05-09T04:25:45.621Z,12.38
2024-05-09T04:28:14.457Z,12.38
2024-05-09T04:30:42.888Z,12.39
2024-05-09T04:33:13.158Z,12.39
2024-05-09T04:35:45.049Z,12.39
2024-05-09T04:38:14.649Z,12.38
2024-05-09T04:40:42.663Z,12.39
2024-05-09T04:43:19.665Z,12.43
2024-05-09T04:45:47.207Z,12.46
2024-05-09T04:48:15.080Z,12.52
2024-05-09T04:50:42.673Z,12.55
2024-05-09T04:53:16.628Z,12.60
2024-05-09T04:55:44.006Z,12.72
2024-05-09T04:58:11.970Z,12.81
2024-05-09T05:00:41.028Z,12.86
2024-05-09T05:03:14.310Z,12.91
2024-05-09T05:05:45.185Z,12.96
2024-05-09T05:08:18.608Z,12.99
2024-05-09T05:10:48.567Z,13.06
2024-05-09T05:13:20.040Z,13.13
2024-05-09T05:15:51.002Z,13.14
2024-05-09T05:18:19.097Z,13.24
2024-05-09T05:20:46.538Z,13.34
2024-05-09T05:23:20.913Z,13.43
2024-05-09T05:25:53.707Z,13.41
2024-05-09T05:28:22.186Z,13.36
2024-05-09T05:30:50.064Z,13.47
2024-05-09T05:33:19.249Z,13.58
2024-05-09T05:35:47.136Z,13.77
2024-05-09T05:38:15.195Z,13.94
2024-05-09T05:40:42.574Z,14.00
2024-05-09T05:43:18.089Z,14.11
2024-05-09T05:45:46.458Z,14.21
2024-05-09T05:48:18.122Z,14.28
2024-05-09T05:50:46.023Z,14.29
2024-05-09T05:53:13.841Z,14.37
2024-05-09T05:55:42.804Z,14.42
2024-05-09T05:58:15.019Z,14.47
2024-05-09T06:00:43.062Z,14.48
2024-05-09T06:03:13.710Z,14.47
2024-05-09T06:05:46.130Z,14.45
2024-05-09T06:08:14.029Z,14.46
2024-05-09T06:10:42.056Z,14.48
2024-05-09T06:13:14.003Z,14.51
2024-05-09T06:15:41.928Z,14.56
2024-05-09T06:18:11.257Z,14.60
2024-05-09T06:20:42.314Z,14.64
2024-05-09T06:23:11.326Z,14.65
2024-05-09T06:25:38.962Z,14.65
2024-05-09T06:28:06.996Z,14.68
2024-05-09T06:30:40.313Z,14.71
2024-05-09T06:33:13.242Z,14.75
2024-05-09T06:35:43.050Z,14.83
2024-05-09T06:38:11.060Z,14.89
2024-05-09T06:40:42.601Z,14.95
2024-05-09T06:43:13.288Z,14.97
2024-05-09T06:45:40.951Z,15.03
2024-05-09T06:48:09.835Z,15.03
2024-05-09T06:50:39.236Z,15.07
2024-05-09T06:53:08.700Z,15.13
2024-05-09T06:55:37.336Z,15.19
2024-05-09T06:58:12.035Z,15.28
2024-05-09T07:00:41.448Z,15.31
2024-05-09T07:03:17.159Z,15.31
2024-05-09T07:05:47.378Z,15.33
2024-05-09T07:08:16.807Z,15.35
2024-05-09T07:10:44.606Z,15.39
2024-05-09T07:13:14.799Z,15.42
2024-05-09T07:15:42.777Z,15.51
2024-05-09T07:18:17.424Z,15.61
2024-05-09T07:20:46.447Z,15.64
2024-05-09T07:23:14.286Z,15.70
2024-05-09T07:25:42.171Z,15.75
2024-05-09T07:28:16.133Z,15.79
2024-05-09T07:30:43.740Z,15.84
2024-05-09T07:33:23.300Z,15.91
2024-05-09T07:35:52.359Z,15.99
2024-05-09T07:38:20.227Z,16.05
2024-05-09T07:40:47.580Z,16.14
2024-05-09T07:43:16.189Z,16.25
2024-05-09T07:45:52.084Z,16.31
2024-05-09T07:52:38.486Z,16.51
2024-05-09T07:53:47.344Z,16.61
2024-05-09T07:56:19.410Z,16.70
2024-05-09T07:58:50.916Z,16.71
2024-05-09T08:01:18.734Z,16.66
2024-05-09T08:03:46.640Z,16.79
2024-05-09T08:06:14.164Z,16.88
2024-05-09T08:08:41.749Z,16.99
2024-05-09T08:11:08.905Z,17.00
2024-05-09T08:13:36.370Z,17.03
2024-05-09T08:16:03.767Z,17.06
2024-05-09T08:18:31.581Z,17.09
2024-05-09T08:20:59.317Z,17.19
2024-05-09T08:23:26.801Z,17.21
2024-05-09T08:25:54.037Z,17.26
2024-05-09T08:28:21.652Z,17.33
2024-05-09T08:30:49.062Z,17.39
2024-05-09T08:33:16.905Z,17.42
2024-05-09T08:35:44.102Z,17.45
2024-05-09T08:38:11.698Z,17.47
2024-05-09T08:40:39.279Z,17.53
2024-05-09T08:43:10.831Z,17.58
2024-05-09T08:45:43.778Z,17.59
2024-05-09T08:48:15.651Z,17.47
2024-05-09T08:50:45.672Z,17.37
2024-05-09T08:53:15.392Z,17.38
2024-05-09T08:55:44.747Z,17.40
2024-05-09T08:58:20.387Z,17.41
2024-05-09T09:00:49.177Z,17.53
2024-05-09T09:03:26.896Z,17.74
2024-05-09T09:06:05.796Z,17.84
2024-05-09T09:08:33.358Z,17.94
2024-05-09T09:11:01.136Z,17.95
2024-05-09T09:13:28.797Z,18.10
2024-05-09T09:15:59.018Z,18.24
2024-05-09T09:18:29.348Z,18.29
2024-05-09T09:20:56.675Z,18.39
2024-05-09T09:23:24.277Z,18.52
2024-05-09T09:25:52.088Z,18.65
2024-05-09T09:28:23.231Z,18.77
2024-05-09T09:30:50.449Z,18.88
2024-05-09T09:33:18.514Z,19.01
2024-05-09T09:35:45.848Z,19.11
2024-05-09T09:38:23.114Z,19.08
2024-05-09T09:40:51.232Z,19.29
2024-05-09T09:43:22.933Z,19.40
2024-05-09T09:45:53.446Z,19.42
2024-05-09T09:48:23.113Z,19.25
2024-05-09T09:50:56.774Z,19.14
2024-05-09T09:53:24.523Z,19.05
2024-05-09T09:55:53.115Z,18.99
2024-05-09T09:58:20.908Z,18.97
2024-05-09T10:00:55.643Z,18.88
2024-05-09T10:03:39.130Z,19.03
2024-05-09T10:06:09.010Z,19.21
2024-05-09T10:08:39.408Z,19.16
2024-05-09T10:11:08.253Z,19.19
2024-05-09T10:13:36.253Z,19.14
2024-05-09T10:16:21.170Z,19.07
2024-05-09T10:18:49.439Z,19.00
2024-05-09T10:21:33.046Z,18.92
2024-05-09T10:24:04.020Z,19.13
2024-05-09T10:26:39.564Z,19.21
2024-05-09T10:29:18.839Z,19.32
2024-05-09T10:31:48.183Z,19.39
2024-05-09T10:34:24.092Z,19.50
2024-05-09T10:36:55.006Z,19.49
2024-05-09T10:39:23.116Z,19.57
2024-05-09T10:41:50.375Z,19.70
2024-05-09T10:44:18.660Z,19.82
2024-05-09T10:46:46.403Z,19.89
2024-05-09T10:49:17.415Z,19.91
2024-05-09T10:51:48.483Z,19.96
2024-05-09T10:54:16.632Z,19.92
2024-05-09T10:56:55.742Z,19.99
2024-05-09T10:59:23.206Z,20.03
2024-05-09T11:01:51.131Z,19.85
2024-05-09T11:04:19.805Z,19.89
2024-05-09T11:06:47.747Z,20.05
2024-05-09T11:09:18.061Z,20.19
2024-05-09T11:11:45.583Z,20.35
2024-05-09T11:14:13.862Z,20.41
2024-05-09T11:16:41.411Z,20.45
2024-05-09T11:19:14.463Z,20.48
2024-05-09T11:21:41.782Z,20.52
2024-05-09T11:24:11.456Z,20.56
2024-05-09T11:26:39.078Z,20.62
2024-05-09T11:29:06.620Z,20.69
2024-05-09T11:31:44.630Z,20.63
2024-05-09T11:34:12.170Z,20.42
2024-05-09T11:36:39.591Z,20.41
2024-05-09T11:39:07.291Z,20.52
2024-05-09T11:41:36.001Z,20.55
2024-05-09T11:44:03.440Z,20.50
2024-05-09T11:46:30.687Z,20.62
2024-05-09T11:48:58.291Z,20.79
2024-05-09T11:51:25.394Z,20.82
2024-05-09T11:53:52.866Z,20.86
2024-05-09T11:56:20.031Z,20.62
2024-05-09T11:58:47.550Z,20.48
2024-05-09T12:01:14.731Z,20.64
2024-05-09T12:03:42.339Z,20.82
2024-05-09T12:06:09.688Z,20.95
2024-05-09T12:08:37.454Z,20.90
2024-05-09T12:11:05.258Z,21.00
2024-05-09T12:13:33.040Z,21.27
2024-05-09T12:16:00.298Z,21.36
2024-05-09T12:18:27.884Z,21.36
2024-05-09T12:20:55.015Z,21.25
2024-05-09T12:23:22.095Z,21.30
2024-05-09T12:25:49.977Z,21.12
2024-05-09T12:28:17.284Z,20.93
2024-05-09T12:30:44.986Z,20.93
2024-05-09T12:33:13.520Z,20.96
2024-05-09T12:35:44.463Z,21.12
2024-05-09T12:38:15.450Z,21.10
2024-05-09T12:40:43.607Z,20.98
2024-05-09T12:43:11.681Z,20.88
2024-05-09T12:45:40.566Z,20.86
2024-05-09T12:48:12.429Z,20.88
2024-05-09T12:50:41.429Z,20.86
2024-05-09T12:53:08.868Z,20.85
2024-05-09T12:55:44.254Z,20.85
2024-05-09T12:58:24.170Z,20.89
2024-05-09T13:00:52.730Z,20.90
2024-05-09T13:03:20.463Z,20.94
2024-05-09T13:05:50.108Z,20.95
2024-05-09T13:08:17.458Z,20.99
2024-05-09T13:10:45.222Z,21.09
2024-05-09T13:13:12.946Z,21.19
2024-05-09T13:15:40.834Z,21.29
2024-05-09T13:18:09.902Z,21.32
2024-05-09T13:20:37.668Z,21.30
2024-05-09T13:23:07.931Z,21.36
2024-05-09T13:25:38.044Z,21.40
2024-05-09T13:28:07.530Z,21.49
2024-05-09T13:30:40.407Z,21.52
2024-05-09T13:33:14.262Z,21.52
2024-05-09T13:35:47.182Z,21.51
2024-05-09T13:38:20.023Z,21.54
2024-05-09T13:40:49.032Z,21.52
2024-05-09T13:43:17.613Z,21.49
2024-05-09T13:45:45.851Z,21.48
2024-05-09T13:48:13.383Z,21.35
2024-05-09T13:50:41.370Z,21.33
2024-05-09T13:53:09.108Z,21.21
2024-05-09T13:55:40.292Z,21.18
2024-05-09T13:58:09.591Z,21.20
2024-05-09T14:00:45.931Z,21.26
2024-05-09T14:03:18.743Z,21.25
2024-05-09T14:05:48.252Z,21.16
2024-05-09T14:08:17.922Z,21.03
2024-05-09T14:10:47.264Z,21.03
2024-05-09T14:13:15.191Z,21.09
2024-05-09T14:15:42.925Z,21.13
2024-05-09T14:18:13.200Z,21.18
2024-05-09T14:20:42.922Z,21.28
2024-05-09T14:23:10.955Z,21.38
2024-05-09T14:25:42.653Z,21.38
2024-05-09T14:28:12.528Z,21.24
2024-05-09T14:30:41.636Z,21.28
2024-05-09T14:33:09.585Z,21.38
2024-05-09T14:35:38.841Z,21.48
2024-05-09T14:38:08.542Z,21.46
2024-05-09T14:40:42.243Z,21.44
2024-05-09T14:43:15.885Z,21.33
2024-05-09T14:45:45.220Z,21.35
2024-05-09T14:48:15.688Z,21.43
2024-05-09T14:50:43.763Z,21.51
2024-05-09T14:53:13.624Z,21.58
2024-05-09T14:55:43.327Z,21.64
2024-05-09T14:58:12.667Z,21.69
2024-05-09T15:00:46.712Z,21.72
2024-05-09T15:03:21.095Z,21.73
2024-05-09T15:05:51.079Z,21.73
2024-05-09T15:08:19.899Z,21.70
2024-05-09T15:10:50.072Z,21.68
2024-05-09T15:13:18.722Z,21.67
2024-05-09T15:15:46.830Z,21.68
2024-05-09T15:18:15.337Z,21.68
2024-05-09T15:20:44.090Z,21.69
2024-05-09T15:23:11.420Z,21.73
2024-05-09T15:25:38.925Z,21.75
2024-05-09T15:28:08.125Z,21.74
2024-05-09T15:30:36.593Z,21.76
2024-05-09T15:33:04.736Z,21.76
2024-05-09T15:35:33.939Z,21.85
2024-05-09T15:38:05.222Z,22.08
2024-05-09T15:40:39.539Z,22.28
2024-05-09T15:43:10.529Z,22.59
2024-05-09T15:45:40.758Z,22.82
2024-05-09T15:48:09.993Z,22.99
2024-05-09T15:50:41.010Z,23.06
2024-05-09T15:53:12.040Z,23.14
2024-05-09T15:55:41.531Z,23.35
2024-05-09T15:58:09.754Z,23.49
2024-05-09T16:00:41.439Z,23.54
2024-05-09T16:03:12.414Z,23.42
2024-05-09T16:05:43.288Z,23.31
2024-05-09T16:08:12.752Z,23.14
2024-05-09T16:10:44.589Z,22.94
2024-05-09T16:13:13.153Z,22.80
2024-05-09T16:15:41.281Z,22.59
2024-05-09T16:18:08.720Z,22.49
2024-05-09T16:20:40.290Z,22.40
2024-05-09T16:23:10.113Z,22.33
2024-05-09T16:25:39.075Z,22.38
2024-05-09T16:28:09.898Z,22.40
2024-05-09T16:30:40.085Z,22.51
2024-05-09T16:33:08.440Z,22.53
2024-05-09T16:35:37.492Z,22.46
2024-05-09T16:38:06.520Z,22.45
2024-05-09T16:40:38.838Z,22.47
2024-05-09T16:43:10.357Z,22.57
2024-05-09T16:45:45.002Z,22.58
2024-05-09T16:48:14.130Z,22.62
2024-05-09T16:50:42.017Z,22.56
2024-05-09T16:53:09.261Z,22.45
2024-05-09T16:55:36.996Z,22.32
2024-05-09T16:58:06.630Z,22.25
2024-05-09T17:00:40.983Z,22.31
2024-05-09T17:03:14.133Z,22.38
2024-05-09T17:05:44.064Z,22.40
2024-05-09T17:08:11.688Z,22.32
2024-05-09T17:10:39.263Z,22.17
2024-05-09T17:13:07.899Z,22.05
2024-05-09T17:15:37.608Z,21.91
2024-05-09T17:18:07.706Z,21.81
2024-05-09T17:20:37.491Z,21.65
2024-05-09T17:23:14.848Z,21.51
2024-05-09T17:25:43.215Z,21.39
2024-05-09T17:28:12.190Z,21.28
2024-05-09T17:30:42.205Z,21.12
2024-05-09T17:33:11.633Z,21.08
2024-05-09T17:35:40.544Z,20.99
2024-05-09T17:38:08.681Z,20.92
2024-05-09T17:40:38.096Z,20.84
2024-05-09T17:43:09.429Z,20.78
2024-05-09T17:45:40.511Z,20.72
2024-05-09T17:48:12.526Z,20.69
2024-05-09T17:50:41.605Z,20.63
2024-05-09T17:53:10.466Z,20.59
2024-05-09T17:55:39.237Z,20.52
2024-05-09T17:58:06.801Z,20.45
2024-05-09T18:00:39.432Z,20.42
2024-05-09T18:03:13.793Z,20.39
2024-05-09T18:05:44.521Z,20.33
2024-05-09T18:08:12.978Z,20.25
2024-05-09T18:10:41.889Z,20.21
2024-05-09T18:13:10.939Z,20.15
2024-05-09T18:15:42.571Z,20.10
2024-05-09T18:18:10.823Z,20.06
2024-05-09T18:20:43.885Z,20.03
2024-05-09T18:23:16.256Z,19.99
2024-05-09T18:25:46.544Z,19.96
2024-05-09T18:28:14.844Z,19.92
2024-05-09T18:30:43.247Z,19.88
2024-05-09T18:33:11.552Z,19.83
2024-05-09T18:35:43.971Z,19.80
2024-05-09T18:38:11.295Z,19.78
2024-05-09T18:40:40.233Z,19.76
2024-05-09T18:43:09.370Z,19.71
2024-05-09T18:45:38.200Z,19.68
2024-05-09T18:48:08.726Z,19.66
2024-05-09T18:50:39.634Z,19.63
2024-05-09T18:53:11.588Z,19.58
2024-05-09T18:55:40.315Z,19.57
2024-05-09T18:58:07.979Z,19.53
2024-05-09T19:00:38.690Z,19.51
2024-05-09T19:03:12.378Z,19.47
2024-05-09T19:05:45.901Z,19.41
2024-05-09T19:08:15.433Z,19.38
2024-05-09T19:10:43.006Z,19.36
2024-05-09T19:13:13.255Z,19.32
2024-05-09T19:15:43.103Z,19.29
2024-05-09T19:18:14.248Z,19.23
2024-05-09T19:20:42.454Z,19.20
2024-05-09T19:23:11.644Z,19.11
2024-05-09T19:25:39.135Z,19.07
2024-05-09T19:28:07.063Z,19.05
2024-05-09T19:30:39.803Z,19.02
2024-05-09T19:33:13.798Z,18.97
2024-05-09T19:35:42.997Z,18.92
2024-05-09T19:38:12.176Z,18.89
2024-05-09T19:40:39.371Z,18.83
2024-05-09T19:43:07.190Z,18.80
2024-05-09T19:45:35.626Z,18.76
2024-05-09T19:48:05.794Z,18.75
2024-05-09T19:50:41.275Z,18.70
2024-05-09T19:53:12.958Z,18.66
2024-05-09T19:55:43.531Z,18.63
2024-05-09T19:58:12.308Z,18.59
2024-05-09T20:00:42.270Z,18.55
2024-05-09T20:03:13.291Z,18.53
2024-05-09T20:05:44.666Z,18.49
2024-05-09T20:08:12.868Z,18.43
2024-05-09T20:10:40.068Z,18.40
2024-05-09T20:13:08.398Z,18.38
2024-05-09T20:15:37.820Z,18.34
2024-05-09T20:18:06.771Z,18.29
2024-05-09T20:20:39.601Z,18.25
2024-05-09T20:23:14.259Z,18.20
2024-05-09T20:25:42.433Z,18.17
2024-05-09T20:28:10.880Z,18.12
2024-05-09T20:30:38.530Z,18.08
2024-05-09T20:33:07.788Z,18.06
2024-05-09T20:35:36.496Z,18.02
2024-05-09T20:38:04.823Z,18.01
2024-05-09T20:40:36.753Z,17.95
2024-05-09T20:43:10.798Z,17.88
2024-05-09T20:45:38.789Z,17.85
2024-05-09T20:48:08.203Z,17.80
2024-05-09T20:50:39.755Z,17.78
2024-05-09T20:53:12.907Z,17.73
2024-05-09T20:55:41.212Z,17.69
2024-05-09T20:58:10.291Z,17.66
2024-05-09T21:00:41.330Z,17.62
2024-05-09T21:03:13.790Z,17.58
2024-05-09T21:05:42.259Z,17.54
2024-05-09T21:08:10.301Z,17.51
2024-05-09T21:10:38.055Z,17.49
2024-05-09T21:13:06.823Z,17.44
2024-05-09T21:15:35.322Z,17.43
2024-05-09T21:18:04.132Z,17.41
2024-05-09T21:20:33.433Z,17.37
2024-05-09T21:23:02.259Z,17.36
2024-05-09T21:25:30.109Z,17.33
2024-05-09T21:27:58.128Z,17.32
2024-05-09T21:32:55.899Z,17.28
2024-05-09T21:35:23.019Z,17.26
2024-05-09T21:37:50.513Z,17.24
2024-05-09T21:40:27.008Z,17.22
2024-05-09T21:43:01.370Z,17.20
2024-05-09T21:45:28.693Z,17.17
2024-05-09T21:47:56.384Z,17.16
2024-05-09T21:50:31.781Z,17.15
2024-05-09T21:53:07.103Z,17.13
2024-05-09T21:55:34.567Z,17.10
2024-05-09T21:58:02.767Z,17.07
2024-05-09T22:00:36.130Z,17.08
2024-05-09T22:03:10.606Z,17.04
2024-05-09T22:05:42.152Z,17.03
2024-05-09T22:08:10.996Z,17.01
2024-05-09T22:10:38.301Z,17.00
2024-05-09T22:13:06.992Z,16.97
2024-05-09T22:15:40.105Z,16.94
2024-05-09T22:18:10.346Z,16.90
2024-05-09T22:20:45.337Z,16.84
2024-05-09T22:23:14.902Z,16.77
2024-05-09T22:25:42.501Z,16.74
2024-05-09T22:28:10.337Z,16.71
2024-05-09T22:30:39.699Z,16.67
2024-05-09T22:33:10.141Z,16.62
2024-05-09T22:35:39.346Z,16.56
2024-05-09T22:38:07.009Z,16.54
2024-05-09T22:40:44.912Z,16.52
2024-05-09T22:43:24.278Z,16.48
2024-05-09T22:45:55.932Z,16.43
2024-05-09T22:48:25.186Z,16.40
2024-05-09T22:50:54.468Z,16.37
2024-05-09T22:53:25.627Z,16.33
2024-05-09T22:55:53.460Z,16.29
2024-05-09T22:58:21.562Z,16.24
2024-05-09T23:00:48.995Z,16.22
2024-05-09T23:03:16.858Z,16.17
2024-05-09T23:05:44.482Z,16.13
2024-05-09T23:08:11.969Z,16.11
2024-05-09T23:10:39.268Z,16.06
2024-05-09T23:13:07.997Z,16.01
2024-05-09T23:15:38.440Z,15.96
2024-05-09T23:18:07.461Z,15.83
2024-05-09T23:20:38.566Z,15.77
2024-05-09T23:23:09.805Z,15.73
2024-05-09T23:25:38.124Z,15.68
2024-05-09T23:28:06.312Z,15.63
2024-05-09T23:30:38.348Z,15.59
2024-05-09T23:33:11.953Z,15.54
2024-05-09T23:35:41.925Z,15.53
2024-05-09T23:38:09.835Z,15.51
2024-05-09T23:40:40.011Z,15.45
2024-05-09T23:43:11.843Z,15.41
2024-05-09T23:45:39.966Z,15.37
2024-05-09T23:48:08.663Z,15.33
2024-05-09T23:50:38.262Z,15.28
2024-05-09T23:53:08.966Z,15.22
2024-05-09T23:55:37.666Z,15.16
2024-05-09T23:58:06.833Z,15.01
